sensor_id;sensor_type;location;lat;lon;timestamp;pressure;altitude;pressure_sealevel;temperature
42119;BMP280;27783;42.782;23.274;2022-12-29T00:02:08;96490.22;;;5.16
42119;BMP280;27783;42.782;23.274;2022-12-29T00:04:34;96488.34;;;5.17
42119;BMP280;27783;42.782;23.274;2022-12-29T00:07:00;96492.50;;;5.18
42119;BMP280;27783;42.782;23.274;2022-12-29T00:09:26;96484.53;;;5.15
42119;BMP280;27783;42.782;23.274;2022-12-29T00:11:52;96482.59;;;5.12
42119;BMP280;27783;42.782;23.274;2022-12-29T00:14:17;96484.53;;;5.03
42119;BMP280;27783;42.782;23.274;2022-12-29T00:17:02;96493.34;;;4.98
42119;BMP280;27783;42.782;23.274;2022-12-29T00:19:28;96505.22;;;4.96
42119;BMP280;27783;42.782;23.274;2022-12-29T00:22:13;96513.69;;;4.93
42119;BMP280;27783;42.782;23.274;2022-12-29T00:24:58;96514.66;;;4.89
42119;BMP280;27783;42.782;23.274;2022-12-29T00:27:42;96514.22;;;4.87
42119;BMP280;27783;42.782;23.274;2022-12-29T00:30:25;96511.91;;;4.85
42119;BMP280;27783;42.782;23.274;2022-12-29T00:33:15;96509.00;;;4.87
42119;BMP280;27783;42.782;23.274;2022-12-29T00:36:11;96514.75;;;4.81
42119;BMP280;27783;42.782;23.274;2022-12-29T00:38:41;96519.75;;;4.85
42119;BMP280;27783;42.782;23.274;2022-12-29T00:41:26;96521.03;;;4.80
42119;BMP280;27783;42.782;23.274;2022-12-29T00:44:11;96520.28;;;4.79
42119;BMP280;27783;42.782;23.274;2022-12-29T00:46:38;96522.56;;;4.81
42119;BMP280;27783;42.782;23.274;2022-12-29T00:49:05;96518.94;;;4.73
42119;BMP280;27783;42.782;23.274;2022-12-29T00:51:49;96527.03;;;4.80
42119;BMP280;27783;42.782;23.274;2022-12-29T00:54:16;96521.03;;;4.80
42119;BMP280;27783;42.782;23.274;2022-12-29T00:56:42;96522.66;;;4.84
42119;BMP280;27783;42.782;23.274;2022-12-29T00:59:09;96526.50;;;4.86
42119;BMP280;27783;42.782;23.274;2022-12-29T01:01:36;96520.41;;;4.82
42119;BMP280;27783;42.782;23.274;2022-12-29T01:04:01;96516.25;;;4.82
42119;BMP280;27783;42.782;23.274;2022-12-29T01:06:27;96520.41;;;4.82
42119;BMP280;27783;42.782;23.274;2022-12-29T01:08:52;96527.03;;;4.80
42119;BMP280;27783;42.782;23.274;2022-12-29T01:11:40;96512.44;;;4.79
42119;BMP280;27783;42.782;23.274;2022-12-29T01:14:06;96509.06;;;4.79
42119;BMP280;27783;42.782;23.274;2022-12-29T01:16:32;96506.44;;;4.79
42119;BMP280;27783;42.782;23.274;2022-12-29T01:18:58;96512.56;;;4.82
42119;BMP280;27783;42.782;23.274;2022-12-29T01:21:23;96507.88;;;4.76
42119;BMP280;27783;42.782;23.274;2022-12-29T01:23:49;96503.72;;;4.75
42119;BMP280;27783;42.782;23.274;2022-12-29T01:26:16;96500.03;;;4.76
42119;BMP280;27783;42.782;23.274;2022-12-29T01:28:41;96500.56;;;4.70
42119;BMP280;27783;42.782;23.274;2022-12-29T01:31:08;96502.94;;;4.75
42119;BMP280;27783;42.782;23.274;2022-12-29T01:33:34;96496.22;;;4.74
42119;BMP280;27783;42.782;23.274;2022-12-29T01:36:04;96489.47;;;4.73
42119;BMP280;27783;42.782;23.274;2022-12-29T01:38:30;96483.03;;;4.70
42119;BMP280;27783;42.782;23.274;2022-12-29T01:40:56;96485.78;;;4.74
42119;BMP280;27783;42.782;23.274;2022-12-29T01:43:21;96479.13;;;4.76
42119;BMP280;27783;42.782;23.274;2022-12-29T01:45:53;96480.56;;;4.74
42119;BMP280;27783;42.782;23.274;2022-12-29T01:48:19;96479.19;;;4.68
42119;BMP280;27783;42.782;23.274;2022-12-29T01:50:50;96481.38;;;4.66
42119;BMP280;27783;42.782;23.274;2022-12-29T01:53:21;96482.59;;;4.68
42119;BMP280;27783;42.782;23.274;2022-12-29T01:55:54;96477.25;;;4.65
42119;BMP280;27783;42.782;23.274;2022-12-29T01:58:24;96476.16;;;4.66
42119;BMP280;27783;42.782;23.274;2022-12-29T02:00:51;96466.78;;;4.65
42119;BMP280;27783;42.782;23.274;2022-12-29T02:03:17;96466.16;;;4.68
42119;BMP280;27783;42.782;23.274;2022-12-29T02:05:54;96464.19;;;4.65
42119;BMP280;27783;42.782;23.274;2022-12-29T02:08:22;96469.09;;;4.66
42119;BMP280;27783;42.782;23.274;2022-12-29T02:10:49;96463.75;;;4.63
42119;BMP280;27783;42.782;23.274;2022-12-29T02:13:16;96460.69;;;4.61
42119;BMP280;27783;42.782;23.274;2022-12-29T02:16:26;96463.75;;;4.63
42119;BMP280;27783;42.782;23.274;2022-12-29T02:21:53;96471.72;;;4.66
42119;BMP280;27783;42.782;23.274;2022-12-29T02:24:47;96463.28;;;4.61
42119;BMP280;27783;42.782;23.274;2022-12-29T02:35:43;96470.94;;;4.66
42119;BMP280;27783;42.782;23.274;2022-12-29T02:44:10;96470.00;;;4.70
42119;BMP280;27783;42.782;23.274;2022-12-29T02:46:36;96460.50;;;4.66
42119;BMP280;27783;42.782;23.274;2022-12-29T02:49:15;96473.22;;;4.67
42119;BMP280;27783;42.782;23.274;2022-12-29T02:51:55;96468.44;;;4.69
42119;BMP280;27783;42.782;23.274;2022-12-29T02:54:23;96465.28;;;4.64
42119;BMP280;27783;42.782;23.274;2022-12-29T03:00:02;96467.44;;;4.62
42119;BMP280;27783;42.782;23.274;2022-12-29T03:10:33;96450.69;;;4.63
42119;BMP280;27783;42.782;23.274;2022-12-29T03:13:06;96455.94;;;4.75
42119;BMP280;27783;42.782;23.274;2022-12-29T03:24:16;96435.75;;;4.52
42119;BMP280;27783;42.782;23.274;2022-12-29T03:26:43;96433.91;;;4.52
42119;BMP280;27783;42.782;23.274;2022-12-29T03:29:12;96446.19;;;4.52
42119;BMP280;27783;42.782;23.274;2022-12-29T03:31:39;96444.44;;;4.44
42119;BMP280;27783;42.782;23.274;2022-12-29T03:34:06;96441.59;;;4.37
42119;BMP280;27783;42.782;23.274;2022-12-29T03:36:39;96442.66;;;4.36
42119;BMP280;27783;42.782;23.274;2022-12-29T03:39:11;96437.19;;;4.30
42119;BMP280;27783;42.782;23.274;2022-12-29T03:41:40;96445.22;;;4.25
42119;BMP280;27783;42.782;23.274;2022-12-29T03:44:07;96446.63;;;4.22
42119;BMP280;27783;42.782;23.274;2022-12-29T03:46:32;96462.75;;;4.04
42119;BMP280;27783;42.782;23.274;2022-12-29T03:48:57;96463.84;;;3.95
42119;BMP280;27783;42.782;23.274;2022-12-29T03:51:23;96465.41;;;3.96
42119;BMP280;27783;42.782;23.274;2022-12-29T03:53:48;96460.69;;;3.90
42119;BMP280;27783;42.782;23.274;2022-12-29T03:56:14;96464.94;;;3.74
42119;BMP280;27783;42.782;23.274;2022-12-29T03:58:39;96461.13;;;3.72
42119;BMP280;27783;42.782;23.274;2022-12-29T04:01:05;96466.59;;;3.79
42119;BMP280;27783;42.782;23.274;2022-12-29T04:03:30;96463.75;;;3.72
42119;BMP280;27783;42.782;23.274;2022-12-29T04:05:55;96463.59;;;3.68
42119;BMP280;27783;42.782;23.274;2022-12-29T04:08:21;96462.84;;;3.68
42119;BMP280;27783;42.782;23.274;2022-12-29T04:10:48;96462.06;;;3.67
42119;BMP280;27783;42.782;23.274;2022-12-29T04:13:14;96463.63;;;3.60
42119;BMP280;27783;42.782;23.274;2022-12-29T04:15:39;96461.47;;;3.62
42119;BMP280;27783;42.782;23.274;2022-12-29T04:18:04;96465.34;;;3.56
42119;BMP280;27783;42.782;23.274;2022-12-29T04:20:30;96471.38;;;3.49
42119;BMP280;27783;42.782;23.274;2022-12-29T04:23:13;96463.69;;;3.52
42119;BMP280;27783;42.782;23.274;2022-12-29T04:25:39;96470.56;;;3.56
42119;BMP280;27783;42.782;23.274;2022-12-29T04:28:05;96474.44;;;3.50
42119;BMP280;27783;42.782;23.274;2022-12-29T04:30:30;96481.69;;;3.37
42119;BMP280;27783;42.782;23.274;2022-12-29T04:32:55;96479.38;;;3.44
42119;BMP280;27783;42.782;23.274;2022-12-29T04:35:21;96479.50;;;3.47
42119;BMP280;27783;42.782;23.274;2022-12-29T04:37:46;96483.19;;;3.46
42119;BMP280;27783;42.782;23.274;2022-12-29T04:40:12;96483.78;;;3.51
42119;BMP280;27783;42.782;23.274;2022-12-29T04:42:37;96474.41;;;3.59
42119;BMP280;27783;42.782;23.274;2022-12-29T04:45:02;96488.91;;;3.68
42119;BMP280;27783;42.782;23.274;2022-12-29T04:47:28;96484.72;;;3.95
42119;BMP280;27783;42.782;23.274;2022-12-29T04:49:53;96488.81;;;4.24
42119;BMP280;27783;42.782;23.274;2022-12-29T04:52:18;96495.38;;;4.30
42119;BMP280;27783;42.782;23.274;2022-12-29T04:54:44;96502.97;;;3.95
42119;BMP280;27783;42.782;23.274;2022-12-29T04:57:09;96494.81;;;3.77
42119;BMP280;27783;42.782;23.274;2022-12-29T04:59:34;96503.06;;;3.79
42119;BMP280;27783;42.782;23.274;2022-12-29T05:02:00;96499.41;;;3.80
42119;BMP280;27783;42.782;23.274;2022-12-29T05:04:25;96497.56;;;3.80
42119;BMP280;27783;42.782;23.274;2022-12-29T05:06:51;96501.56;;;3.78
42119;BMP280;27783;42.782;23.274;2022-12-29T05:09:16;96503.72;;;3.76
42119;BMP280;27783;42.782;23.274;2022-12-29T05:11:41;96515.69;;;3.77
42119;BMP280;27783;42.782;23.274;2022-12-29T05:14:07;96508.28;;;3.79
42119;BMP280;27783;42.782;23.274;2022-12-29T05:16:32;96505.38;;;3.80
42119;BMP280;27783;42.782;23.274;2022-12-29T05:18:58;96503.03;;;3.87
42119;BMP280;27783;42.782;23.274;2022-12-29T05:21:23;96503.47;;;3.89
42119;BMP280;27783;42.782;23.274;2022-12-29T05:23:48;96505.91;;;3.94
42119;BMP280;27783;42.782;23.274;2022-12-29T05:26:14;96494.28;;;3.91
42119;BMP280;27783;42.782;23.274;2022-12-29T05:28:39;96505.09;;;3.82
42119;BMP280;27783;42.782;23.274;2022-12-29T05:31:04;96495.09;;;3.83
42119;BMP280;27783;42.782;23.274;2022-12-29T05:33:30;96494.31;;;3.83
42119;BMP280;27783;42.782;23.274;2022-12-29T05:35:55;96507.22;;;3.80
42119;BMP280;27783;42.782;23.274;2022-12-29T05:38:21;96511.44;;;3.92
42119;BMP280;27783;42.782;23.274;2022-12-29T05:40:46;96510.56;;;3.88
42119;BMP280;27783;42.782;23.274;2022-12-29T05:43:11;96509.97;;;3.83
42119;BMP280;27783;42.782;23.274;2022-12-29T05:45:37;96507.50;;;3.86
42119;BMP280;27783;42.782;23.274;2022-12-29T05:48:02;96505.66;;;3.87
42119;BMP280;27783;42.782;23.274;2022-12-29T05:50:28;96513.16;;;3.88
42119;BMP280;27783;42.782;23.274;2022-12-29T05:52:53;96511.91;;;3.94
42119;BMP280;27783;42.782;23.274;2022-12-29T05:55:19;96514.09;;;3.84
42119;BMP280;27783;42.782;23.274;2022-12-29T05:57:44;96516.66;;;3.92
42119;BMP280;27783;42.782;23.274;2022-12-29T06:00:10;96524.75;;;3.99
42119;BMP280;27783;42.782;23.274;2022-12-29T06:02:35;96521.69;;;3.97
42119;BMP280;27783;42.782;23.274;2022-12-29T06:05:01;96527.09;;;3.92
42119;BMP280;27783;42.782;23.274;2022-12-29T06:07:26;96525.38;;;3.96
42119;BMP280;27783;42.782;23.274;2022-12-29T06:09:51;96530.09;;;4.02
42119;BMP280;27783;42.782;23.274;2022-12-29T06:12:17;96533.03;;;4.01
42119;BMP280;27783;42.782;23.274;2022-12-29T06:14:42;96526.84;;;4.05
42119;BMP280;27783;42.782;23.274;2022-12-29T06:17:07;96521.75;;;4.09
42119;BMP280;27783;42.782;23.274;2022-12-29T06:19:33;96521.81;;;4.00
42119;BMP280;27783;42.782;23.274;2022-12-29T06:21:58;96517.81;;;4.03
42119;BMP280;27783;42.782;23.274;2022-12-29T06:24:24;96521.97;;;4.04
42119;BMP280;27783;42.782;23.274;2022-12-29T06:26:49;96529.41;;;4.14
42119;BMP280;27783;42.782;23.274;2022-12-29T06:29:14;96528.91;;;4.20
42119;BMP280;27783;42.782;23.274;2022-12-29T06:31:43;96520.66;;;4.18
42119;BMP280;27783;42.782;23.274;2022-12-29T06:34:10;96527.97;;;4.24
42119;BMP280;27783;42.782;23.274;2022-12-29T06:36:36;96529.81;;;4.24
42119;BMP280;27783;42.782;23.274;2022-12-29T06:39:01;96538.56;;;4.19
42119;BMP280;27783;42.782;23.274;2022-12-29T06:41:26;96532.59;;;4.19
42119;BMP280;27783;42.782;23.274;2022-12-29T06:43:52;96540.53;;;4.22
42119;BMP280;27783;42.782;23.274;2022-12-29T06:46:17;96542.25;;;4.18
42119;BMP280;27783;42.782;23.274;2022-12-29T06:48:42;96542.50;;;4.25
42119;BMP280;27783;42.782;23.274;2022-12-29T06:51:08;96542.13;;;4.35
42119;BMP280;27783;42.782;23.274;2022-12-29T06:53:33;96537.13;;;4.30
42119;BMP280;27783;42.782;23.274;2022-12-29T06:55:59;96537.63;;;4.44
42119;BMP280;27783;42.782;23.274;2022-12-29T06:58:24;96534.00;;;4.56
42119;BMP280;27783;42.782;23.274;2022-12-29T07:00:49;96540.28;;;4.55
42119;BMP280;27783;42.782;23.274;2022-12-29T07:03:15;96550.22;;;4.62
42119;BMP280;27783;42.782;23.274;2022-12-29T07:05:40;96549.28;;;4.66
42119;BMP280;27783;42.782;23.274;2022-12-29T07:08:05;96544.28;;;4.73
42119;BMP280;27783;42.782;23.274;2022-12-29T07:10:31;96546.94;;;4.84
42119;BMP280;27783;42.782;23.274;2022-12-29T07:12:56;96540.53;;;4.82
42119;BMP280;27783;42.782;23.274;2022-12-29T07:15:22;96542.84;;;4.95
42119;BMP280;27783;42.782;23.274;2022-12-29T07:17:47;96536.88;;;4.95
42119;BMP280;27783;42.782;23.274;2022-12-29T07:20:14;96540.47;;;4.90
42119;BMP280;27783;42.782;23.274;2022-12-29T07:22:40;96532.94;;;5.00
42119;BMP280;27783;42.782;23.274;2022-12-29T07:25:05;96537.75;;;4.98
42119;BMP280;27783;42.782;23.274;2022-12-29T07:27:31;96539.53;;;5.06
42119;BMP280;27783;42.782;23.274;2022-12-29T07:29:56;96546.84;;;5.13
42119;BMP280;27783;42.782;23.274;2022-12-29T07:32:21;96538.00;;;5.05
42119;BMP280;27783;42.782;23.274;2022-12-29T07:34:47;96544.00;;;5.17
42119;BMP280;27783;42.782;23.274;2022-12-29T07:37:14;96548.25;;;5.22
42119;BMP280;27783;42.782;23.274;2022-12-29T07:39:40;96539.00;;;5.24
42119;BMP280;27783;42.782;23.274;2022-12-29T07:42:06;96539.25;;;5.31
42119;BMP280;27783;42.782;23.274;2022-12-29T07:44:31;96548.63;;;5.44
42119;BMP280;27783;42.782;23.274;2022-12-29T07:46:56;96542.13;;;5.49
42119;BMP280;27783;42.782;23.274;2022-12-29T07:49:22;96547.31;;;5.38
42119;BMP280;27783;42.782;23.274;2022-12-29T07:51:49;96546.31;;;5.31
42119;BMP280;27783;42.782;23.274;2022-12-29T07:54:14;96556.53;;;5.24
42119;BMP280;27783;42.782;23.274;2022-12-29T07:56:44;96550.38;;;5.51
42119;BMP280;27783;42.782;23.274;2022-12-29T07:59:10;96551.28;;;5.55
42119;BMP280;27783;42.782;23.274;2022-12-29T08:01:37;96557.81;;;5.49
42119;BMP280;27783;42.782;23.274;2022-12-29T08:04:03;96556.22;;;5.68
42119;BMP280;27783;42.782;23.274;2022-12-29T08:06:29;96554.13;;;5.74
42119;BMP280;27783;42.782;23.274;2022-12-29T08:08:56;96553.16;;;5.66
42119;BMP280;27783;42.782;23.274;2022-12-29T08:11:21;96563.94;;;5.77
42119;BMP280;27783;42.782;23.274;2022-12-29T08:13:47;96554.38;;;5.69
42119;BMP280;27783;42.782;23.274;2022-12-29T08:16:12;96556.88;;;5.77
42119;BMP280;27783;42.782;23.274;2022-12-29T08:18:38;96548.59;;;5.75
42119;BMP280;27783;42.782;23.274;2022-12-29T08:21:05;96547.59;;;6.03
42119;BMP280;27783;42.782;23.274;2022-12-29T08:23:31;96544.44;;;5.98
42119;BMP280;27783;42.782;23.274;2022-12-29T08:26:02;96545.19;;;6.10
42119;BMP280;27783;42.782;23.274;2022-12-29T08:28:28;96547.84;;;5.98
42119;BMP280;27783;42.782;23.274;2022-12-29T08:30:57;96556.09;;;6.00
42119;BMP280;27783;42.782;23.274;2022-12-29T08:33:23;96548.03;;;6.16
42119;BMP280;27783;42.782;23.274;2022-12-29T08:35:50;96549.97;;;6.31
42119;BMP280;27783;42.782;23.274;2022-12-29T08:38:15;96548.47;;;6.18
42119;BMP280;27783;42.782;23.274;2022-12-29T08:40:41;96555.94;;;6.55
42119;BMP280;27783;42.782;23.274;2022-12-29T08:43:06;96554.78;;;6.67
42119;BMP280;27783;42.782;23.274;2022-12-29T08:45:32;96553.47;;;6.73
42119;BMP280;27783;42.782;23.274;2022-12-29T08:47:57;96551.84;;;6.69
42119;BMP280;27783;42.782;23.274;2022-12-29T08:50:23;96550.19;;;6.38
42119;BMP280;27783;42.782;23.274;2022-12-29T08:52:48;96552.59;;;6.31
42119;BMP280;27783;42.782;23.274;2022-12-29T08:55:14;96550.69;;;6.55
42119;BMP280;27783;42.782;23.274;2022-12-29T08:57:39;96555.59;;;6.83
42119;BMP280;27783;42.782;23.274;2022-12-29T09:00:06;96547.84;;;6.86
42119;BMP280;27783;42.782;23.274;2022-12-29T09:02:31;96551.25;;;6.75
42119;BMP280;27783;42.782;23.274;2022-12-29T09:04:57;96541.63;;;6.91
42119;BMP280;27783;42.782;23.274;2022-12-29T09:07:24;96532.88;;;7.14
42119;BMP280;27783;42.782;23.274;2022-12-29T09:09:49;96527.16;;;6.97
42119;BMP280;27783;42.782;23.274;2022-12-29T09:12:17;96535.50;;;7.14
42119;BMP280;27783;42.782;23.274;2022-12-29T09:14:42;96522.84;;;7.46
42119;BMP280;27783;42.782;23.274;2022-12-29T09:17:09;96524.69;;;7.30
42119;BMP280;27783;42.782;23.274;2022-12-29T09:19:53;96516.66;;;7.68
42119;BMP280;27783;42.782;23.274;2022-12-29T09:22:19;96519.19;;;7.95
42119;BMP280;27783;42.782;23.274;2022-12-29T09:24:44;96521.81;;;7.95
42119;BMP280;27783;42.782;23.274;2022-12-29T09:27:09;96517.94;;;7.74
42119;BMP280;27783;42.782;23.274;2022-12-29T09:29:35;96513.28;;;7.68
42119;BMP280;27783;42.782;23.274;2022-12-29T09:32:04;96514.97;;;7.46
42119;BMP280;27783;42.782;23.274;2022-12-29T09:34:29;96502.53;;;7.58
42119;BMP280;27783;42.782;23.274;2022-12-29T09:36:55;96503.97;;;8.34
42119;BMP280;27783;42.782;23.274;2022-12-29T09:39:22;96505.41;;;8.13
42119;BMP280;27783;42.782;23.274;2022-12-29T09:42:06;96505.06;;;8.33
42119;BMP280;27783;42.782;23.274;2022-12-29T09:44:51;96493.28;;;8.09
42119;BMP280;27783;42.782;23.274;2022-12-29T09:47:19;96494.56;;;8.33
42119;BMP280;27783;42.782;23.274;2022-12-29T09:50:00;96501.41;;;8.37
42119;BMP280;27783;42.782;23.274;2022-12-29T09:52:34;96489.91;;;8.27
42119;BMP280;27783;42.782;23.274;2022-12-29T09:55:26;96487.94;;;8.39
42119;BMP280;27783;42.782;23.274;2022-12-29T09:57:54;96473.44;;;8.11
42119;BMP280;27783;42.782;23.274;2022-12-29T10:00:24;96478.13;;;8.73
42119;BMP280;27783;42.782;23.274;2022-12-29T10:02:58;96471.28;;;9.09
42119;BMP280;27783;42.782;23.274;2022-12-29T10:05:38;96468.56;;;8.83
42119;BMP280;27783;42.782;23.274;2022-12-29T10:08:18;96477.81;;;8.96
42119;BMP280;27783;42.782;23.274;2022-12-29T10:13:26;96466.25;;;9.41
42119;BMP280;27783;42.782;23.274;2022-12-29T10:16:11;96452.41;;;9.91
42119;BMP280;27783;42.782;23.274;2022-12-29T10:23:56;96456.25;;;8.87
42119;BMP280;27783;42.782;23.274;2022-12-29T10:26:26;96447.28;;;9.54
42119;BMP280;27783;42.782;23.274;2022-12-29T10:28:59;96447.03;;;9.62
42119;BMP280;27783;42.782;23.274;2022-12-29T10:31:50;96445.59;;;9.43
42119;BMP280;27783;42.782;23.274;2022-12-29T10:34:28;96443.53;;;9.33
42119;BMP280;27783;42.782;23.274;2022-12-29T10:36:59;96438.47;;;9.90
42119;BMP280;27783;42.782;23.274;2022-12-29T10:39:33;96432.44;;;9.68
42119;BMP280;27783;42.782;23.274;2022-12-29T10:45:15;96427.19;;;9.68
42119;BMP280;27783;42.782;23.274;2022-12-29T10:48:09;96423.16;;;9.74
42119;BMP280;27783;42.782;23.274;2022-12-29T10:50:38;96418.88;;;9.66
42119;BMP280;27783;42.782;23.274;2022-12-29T10:53:12;96417.91;;;9.99
42119;BMP280;27783;42.782;23.274;2022-12-29T10:55:41;96411.56;;;10.03
42119;BMP280;27783;42.782;23.274;2022-12-29T10:58:11;96412.31;;;9.53
42119;BMP280;27783;42.782;23.274;2022-12-29T11:00:37;96404.19;;;10.16
42119;BMP280;27783;42.782;23.274;2022-12-29T11:05:58;96402.81;;;10.25
42119;BMP280;27783;42.782;23.274;2022-12-29T11:08:30;96397.50;;;9.93
42119;BMP280;27783;42.782;23.274;2022-12-29T11:11:07;96404.97;;;10.16
42119;BMP280;27783;42.782;23.274;2022-12-29T11:13:35;96395.63;;;10.22
42119;BMP280;27783;42.782;23.274;2022-12-29T11:16:11;96390.81;;;9.73
42119;BMP280;27783;42.782;23.274;2022-12-29T11:18:38;96389.78;;;10.06
42119;BMP280;27783;42.782;23.274;2022-12-29T11:21:30;96381.91;;;10.74
42119;BMP280;27783;42.782;23.274;2022-12-29T11:23:58;96379.97;;;11.06
42119;BMP280;27783;42.782;23.274;2022-12-29T11:26:25;96383.25;;;10.93
42119;BMP280;27783;42.782;23.274;2022-12-29T11:31:50;96391.72;;;10.41
42119;BMP280;27783;42.782;23.274;2022-12-29T11:34:33;96375.34;;;9.94
42119;BMP280;27783;42.782;23.274;2022-12-29T11:42:39;96380.78;;;10.11
42119;BMP280;27783;42.782;23.274;2022-12-29T11:45:18;96357.38;;;10.70
42119;BMP280;27783;42.782;23.274;2022-12-29T11:48:01;96378.97;;;10.15
42119;BMP280;27783;42.782;23.274;2022-12-29T11:50:32;96373.16;;;10.31
42119;BMP280;27783;42.782;23.274;2022-12-29T11:53:02;96373.81;;;10.53
42119;BMP280;27783;42.782;23.274;2022-12-29T11:55:29;96374.00;;;10.38
42119;BMP280;27783;42.782;23.274;2022-12-29T11:57:57;96367.47;;;10.61
42119;BMP280;27783;42.782;23.274;2022-12-29T12:00:25;96371.69;;;10.33
42119;BMP280;27783;42.782;23.274;2022-12-29T12:03:07;96355.22;;;10.11
42119;BMP280;27783;42.782;23.274;2022-12-29T12:11:13;96347.34;;;11.24
42119;BMP280;27783;42.782;23.274;2022-12-29T12:13:46;96342.66;;;11.04
42119;BMP280;27783;42.782;23.274;2022-12-29T12:16:17;96338.03;;;10.52
42119;BMP280;27783;42.782;23.274;2022-12-29T12:18:51;96333.00;;;10.76
42119;BMP280;27783;42.782;23.274;2022-12-29T12:21:27;96338.66;;;10.43
42119;BMP280;27783;42.782;23.274;2022-12-29T12:29:17;96327.47;;;10.91
42119;BMP280;27783;42.782;23.274;2022-12-29T12:34:40;96324.53;;;10.61
42119;BMP280;27783;42.782;23.274;2022-12-29T12:45:49;96313.72;;;11.15
42119;BMP280;27783;42.782;23.274;2022-12-29T12:54:40;96307.06;;;10.85
42119;BMP280;27783;42.782;23.274;2022-12-29T13:08:17;96320.28;;;10.88
42119;BMP280;27783;42.782;23.274;2022-12-29T13:11:08;96311.47;;;11.16
42119;BMP280;27783;42.782;23.274;2022-12-29T13:19:24;96321.81;;;10.89
42119;BMP280;27783;42.782;23.274;2022-12-29T13:22:17;96319.72;;;10.66
42119;BMP280;27783;42.782;23.274;2022-12-29T13:28:06;96330.72;;;10.75
42119;BMP280;27783;42.782;23.274;2022-12-29T13:36:04;96331.88;;;10.42
42119;BMP280;27783;42.782;23.274;2022-12-29T13:38:38;96324.91;;;10.27
42119;BMP280;27783;42.782;23.274;2022-12-29T13:41:37;96330.06;;;10.14
42119;BMP280;27783;42.782;23.274;2022-12-29T13:44:02;96327.38;;;10.10
42119;BMP280;27783;42.782;23.274;2022-12-29T13:46:34;96321.03;;;10.15
42119;BMP280;27783;42.782;23.274;2022-12-29T13:49:05;96318.06;;;10.19
42119;BMP280;27783;42.782;23.274;2022-12-29T13:51:33;96324.31;;;10.08
42119;BMP280;27783;42.782;23.274;2022-12-29T13:54:43;96323.78;;;9.93
42119;BMP280;27783;42.782;23.274;2022-12-29T14:00:02;96326.78;;;9.95
42119;BMP280;27783;42.782;23.274;2022-12-29T14:05:30;96327.38;;;9.82
42119;BMP280;27783;42.782;23.274;2022-12-29T14:08:02;96329.28;;;9.84
42119;BMP280;27783;42.782;23.274;2022-12-29T14:10:37;96324.44;;;9.86
42119;BMP280;27783;42.782;23.274;2022-12-29T14:13:13;96328.19;;;9.85
42119;BMP280;27783;42.782;23.274;2022-12-29T14:15:42;96332.19;;;9.76
42119;BMP280;27783;42.782;23.274;2022-12-29T14:18:18;96331.69;;;9.67
42119;BMP280;27783;42.782;23.274;2022-12-29T14:20:53;96333.84;;;9.62
42119;BMP280;27783;42.782;23.274;2022-12-29T14:28:37;96338.47;;;9.43
42119;BMP280;27783;42.782;23.274;2022-12-29T14:36:42;96346.75;;;9.20
42119;BMP280;27783;42.782;23.274;2022-12-29T14:39:34;96344.13;;;9.20
42119;BMP280;27783;42.782;23.274;2022-12-29T14:44:30;96344.53;;;9.00
42119;BMP280;27783;42.782;23.274;2022-12-29T14:47:03;96348.72;;;9.01
42119;BMP280;27783;42.782;23.274;2022-12-29T14:49:39;96343.66;;;8.93
42119;BMP280;27783;42.782;23.274;2022-12-29T14:52:26;96349.19;;;8.84
42119;BMP280;27783;42.782;23.274;2022-12-29T14:57:44;96351.56;;;8.71
42119;BMP280;27783;42.782;23.274;2022-12-29T15:05:40;96349.78;;;8.56
42119;BMP280;27783;42.782;23.274;2022-12-29T15:08:07;96339.50;;;8.48
42119;BMP280;27783;42.782;23.274;2022-12-29T15:10:40;96349.19;;;8.44
42119;BMP280;27783;42.782;23.274;2022-12-29T15:13:16;96342.84;;;8.27
42119;BMP280;27783;42.782;23.274;2022-12-29T15:15:42;96344.84;;;8.15
42119;BMP280;27783;42.782;23.274;2022-12-29T15:18:25;96348.44;;;8.07
42119;BMP280;27783;42.782;23.274;2022-12-29T15:21:11;96347.03;;;7.76
42119;BMP280;27783;42.782;23.274;2022-12-29T15:23:37;96340.84;;;7.50
42119;BMP280;27783;42.782;23.274;2022-12-29T15:26:05;96347.81;;;7.61
42119;BMP280;27783;42.782;23.274;2022-12-29T15:28:43;96343.16;;;7.70
42119;BMP280;27783;42.782;23.274;2022-12-29T15:31:13;96340.03;;;7.65
42119;BMP280;27783;42.782;23.274;2022-12-29T15:33:47;96346.34;;;7.45
42119;BMP280;27783;42.782;23.274;2022-12-29T15:36:27;96348.50;;;7.40
42119;BMP280;27783;42.782;23.274;2022-12-29T15:38:53;96346.94;;;6.90
42119;BMP280;27783;42.782;23.274;2022-12-29T15:41:31;96353.44;;;6.81
42119;BMP280;27783;42.782;23.274;2022-12-29T15:44:21;96343.13;;;7.03
42119;BMP280;27783;42.782;23.274;2022-12-29T15:46:48;96350.78;;;7.11
42119;BMP280;27783;42.782;23.274;2022-12-29T15:49:15;96343.44;;;7.01
42119;BMP280;27783;42.782;23.274;2022-12-29T15:51:41;96339.91;;;6.94
42119;BMP280;27783;42.782;23.274;2022-12-29T15:54:15;96349.97;;;6.92
42119;BMP280;27783;42.782;23.274;2022-12-29T15:56:42;96344.31;;;6.90
42119;BMP280;27783;42.782;23.274;2022-12-29T15:59:30;96345.91;;;6.95
42119;BMP280;27783;42.782;23.274;2022-12-29T16:01:56;96348.47;;;6.91
42119;BMP280;27783;42.782;23.274;2022-12-29T16:04:24;96347.94;;;6.86
42119;BMP280;27783;42.782;23.274;2022-12-29T16:07:19;96346.66;;;6.65
42119;BMP280;27783;42.782;23.274;2022-12-29T16:09:46;96347.81;;;6.52
42119;BMP280;27783;42.782;23.274;2022-12-29T16:12:18;96347.31;;;6.47
42119;BMP280;27783;42.782;23.274;2022-12-29T16:14:57;96344.69;;;6.32
42119;BMP280;27783;42.782;23.274;2022-12-29T16:17:27;96353.84;;;6.26
42119;BMP280;27783;42.782;23.274;2022-12-29T16:20:06;96353.84;;;6.26
42119;BMP280;27783;42.782;23.274;2022-12-29T16:22:42;96352.34;;;6.25
42119;BMP280;27783;42.782;23.274;2022-12-29T16:25:24;96358.00;;;6.27
42119;BMP280;27783;42.782;23.274;2022-12-29T16:27:53;96349.66;;;6.37
42119;BMP280;27783;42.782;23.274;2022-12-29T16:30:30;96350.53;;;6.41
42119;BMP280;27783;42.782;23.274;2022-12-29T16:32:59;96347.66;;;6.46
42119;BMP280;27783;42.782;23.274;2022-12-29T16:35:27;96355.19;;;6.20
42119;BMP280;27783;42.782;23.274;2022-12-29T16:38:15;96352.78;;;6.27
42119;BMP280;27783;42.782;23.274;2022-12-29T16:40:51;96349.66;;;6.37
42119;BMP280;27783;42.782;23.274;2022-12-29T16:43:26;96358.13;;;6.19
42119;BMP280;27783;42.782;23.274;2022-12-29T16:48:27;96375.38;;;6.20